createdAt,value
2023-05-05T00:01:03.024Z,12.80
2023-05-05T00:03:30.199Z,12.55
2023-05-05T00:05:58.074Z,15.68
2023-05-05T00:08:25.126Z,14.10
2023-05-05T00:10:53.793Z,14.38
2023-05-05T00:13:21.771Z,13.88
2023-05-05T00:15:52.026Z,16.45
2023-05-05T00:18:19.920Z,16.67
2023-05-05T00:20:47.773Z,16.45
2023-05-05T00:23:16.283Z,17.35
2023-05-05T00:25:43.810Z,13.90
2023-05-05T00:28:10.920Z,15.60
2023-05-05T00:30:40.064Z,15.05
2023-05-05T00:33:07.129Z,14.18
2023-05-05T00:35:34.728Z,16.10
2023-05-05T00:38:01.801Z,14.07
2023-05-05T00:40:28.765Z,15.48
2023-05-05T00:42:55.627Z,12.95
2023-05-05T00:45:22.643Z,15.40
2023-05-05T00:47:54.659Z,15.15
2023-05-05T00:50:30.143Z,14.55
2023-05-05T00:53:02.000Z,16.48
2023-05-05T00:55:30.021Z,18.67
2023-05-05T00:58:03.169Z,18.40
2023-05-05T01:00:31.159Z,17.77
2023-05-05T01:02:59.549Z,17.88
2023-05-05T01:05:39.413Z,18.13
2023-05-05T01:08:43.869Z,16.02
2023-05-05T01:11:44.914Z,18.10
2023-05-05T01:14:23.058Z,18.58
2023-05-05T01:17:01.327Z,19.23
2023-05-05T01:25:20.605Z,17.65
2023-05-05T01:28:09.290Z,12.40
2023-05-05T01:31:06.466Z,15.98
2023-05-05T01:36:22.776Z,17.52
2023-05-05T01:39:00.704Z,17.80
2023-05-05T01:41:43.284Z,18.20
2023-05-05T01:44:14.743Z,15.60
2023-05-05T01:46:41.558Z,17.90
2023-05-05T01:49:11.645Z,17.42
2023-05-05T01:51:41.342Z,18.10
2023-05-05T01:54:10.371Z,19.40
2023-05-05T01:56:41.183Z,17.85
2023-05-05T01:59:10.258Z,18.55
2023-05-05T02:01:44.824Z,17.00
2023-05-05T02:04:14.558Z,15.63
2023-05-05T02:06:44.427Z,15.30
2023-05-05T02:09:13.951Z,15.70
2023-05-05T02:11:41.540Z,19.20
2023-05-05T02:14:11.664Z,16.83
2023-05-05T02:16:41.929Z,16.55
2023-05-05T02:19:10.118Z,16.65
2023-05-05T02:21:38.030Z,17.00
2023-05-05T02:24:10.277Z,14.20
2023-05-05T02:26:43.176Z,16.55
2023-05-05T02:29:17.695Z,15.60
2023-05-05T02:31:50.714Z,13.57
2023-05-05T02:34:28.089Z,15.02
2023-05-05T02:37:05.507Z,14.65
2023-05-05T02:40:06.045Z,16.20
2023-05-05T02:42:46.334Z,14.57
2023-05-05T02:45:18.394Z,15.50
2023-05-05T02:47:48.559Z,14.57
2023-05-05T02:50:18.251Z,16.98
2023-05-05T02:52:57.140Z,14.10
2023-05-05T02:55:36.866Z,17.50
2023-05-05T02:58:17.174Z,13.68
2023-05-05T03:01:00.052Z,14.70
2023-05-05T03:03:40.311Z,12.00
2023-05-05T03:06:22.796Z,16.15
2023-05-05T03:09:08.588Z,13.60
2023-05-05T03:11:49.978Z,11.38
2023-05-05T03:14:21.385Z,11.48
2023-05-05T03:16:50.411Z,12.75
2023-05-05T03:19:19.847Z,10.75
2023-05-05T03:21:50.364Z,11.38
2023-05-05T03:24:20.134Z,11.15
2023-05-05T03:27:13.140Z,10.40
2023-05-05T03:29:40.192Z,10.70
2023-05-05T03:32:11.736Z,12.02
2023-05-05T03:34:40.066Z,10.07
2023-05-05T03:37:06.936Z,10.20
2023-05-05T03:39:33.924Z,9.27
2023-05-05T03:42:01.507Z,9.27
2023-05-05T03:44:32.008Z,9.73
2023-05-05T03:46:58.964Z,8.30
2023-05-05T03:49:27.059Z,7.40
2023-05-05T03:51:54.317Z,9.65
2023-05-05T03:54:21.231Z,6.43
2023-05-05T03:56:48.126Z,11.05
2023-05-05T03:59:14.946Z,6.43
2023-05-05T04:01:42.163Z,9.63
2023-05-05T04:04:09.672Z,5.60
2023-05-05T04:06:36.654Z,7.60
2023-05-05T04:09:03.737Z,7.55
2023-05-05T04:11:31.362Z,7.57
2023-05-05T04:13:58.475Z,7.32
2023-05-05T04:16:27.411Z,10.88
2023-05-05T04:18:55.411Z,8.30
2023-05-05T04:21:22.315Z,8.27
2023-05-05T04:23:49.404Z,8.10
2023-05-05T04:26:16.564Z,10.20
2023-05-05T04:28:43.618Z,9.43
2023-05-05T04:31:10.692Z,8.93
2023-05-05T04:33:40.995Z,11.45
2023-05-05T04:36:08.652Z,9.45
2023-05-05T04:38:35.530Z,11.48
2023-05-05T04:41:06.674Z,9.25
2023-05-05T04:43:34.678Z,11.00
2023-05-05T04:46:01.734Z,10.35
2023-05-05T04:48:31.604Z,11.93
2023-05-05T04:50:58.478Z,10.00
2023-05-05T04:53:25.500Z,13.98
2023-05-05T04:55:52.398Z,12.00
2023-05-05T04:58:19.278Z,12.40
2023-05-05T05:00:46.577Z,12.35
2023-05-05T05:03:13.513Z,11.70
2023-05-05T05:05:40.345Z,13.93
2023-05-05T05:08:08.272Z,14.52
2023-05-05T05:10:36.329Z,13.80
2023-05-05T05:13:03.262Z,15.05
2023-05-05T05:15:30.174Z,14.07
2023-05-05T05:17:57.460Z,14.50
2023-05-05T05:20:24.981Z,14.90
2023-05-05T05:22:54.021Z,16.23
2023-05-05T05:25:21.795Z,17.20
2023-05-05T05:27:58.576Z,13.88
2023-05-05T05:30:36.129Z,16.10
2023-05-05T05:33:05.511Z,16.33
2023-05-05T05:35:32.550Z,16.98
2023-05-05T05:37:59.443Z,18.48
2023-05-05T05:40:26.373Z,17.98
2023-05-05T05:42:53.178Z,19.05
2023-05-05T05:45:20.332Z,18.65
2023-05-05T05:47:47.285Z,17.65
2023-05-05T05:50:14.450Z,20.05
2023-05-05T05:52:41.940Z,16.63
2023-05-05T05:55:09.556Z,19.45
2023-05-05T05:57:37.345Z,17.70
2023-05-05T06:00:07.515Z,21.58
2023-05-05T06:02:43.351Z,18.90
2023-05-05T06:05:14.050Z,19.33
2023-05-05T06:07:43.115Z,18.80
2023-05-05T06:10:25.609Z,17.58
2023-05-05T06:12:58.198Z,16.95
2023-05-05T06:15:25.988Z,15.02
2023-05-05T06:17:53.052Z,19.60
2023-05-05T06:20:20.005Z,18.02
2023-05-05T06:22:46.888Z,23.88
2023-05-05T06:25:13.768Z,21.67
2023-05-05T06:27:40.580Z,20.40
2023-05-05T06:30:09.696Z,18.40
2023-05-05T06:32:36.738Z,21.08
2023-05-05T06:35:07.536Z,20.80
2023-05-05T06:37:34.496Z,19.95
2023-05-05T06:40:01.500Z,20.40
2023-05-05T06:42:28.484Z,23.75
2023-05-05T06:44:58.144Z,22.23
2023-05-05T06:47:25.319Z,21.48
2023-05-05T06:49:52.349Z,15.25
2023-05-05T06:52:19.386Z,17.27
2023-05-05T06:54:46.180Z,16.65
2023-05-05T06:57:12.972Z,19.23
2023-05-05T06:59:39.814Z,17.63
2023-05-05T07:02:06.707Z,17.63
2023-05-05T07:04:33.566Z,17.77
2023-05-05T07:07:00.504Z,16.50
2023-05-05T07:09:27.453Z,18.60
2023-05-05T07:11:54.340Z,14.07
2023-05-05T07:14:23.392Z,19.42
2023-05-05T07:16:51.524Z,17.02
2023-05-05T07:19:18.543Z,19.33
2023-05-05T07:21:45.324Z,17.27
2023-05-05T07:24:15.234Z,16.80
2023-05-05T07:26:42.189Z,15.02
2023-05-05T07:29:08.980Z,16.77
2023-05-05T07:31:35.967Z,15.45
2023-05-05T07:34:02.809Z,17.80
2023-05-05T07:36:29.748Z,15.88
2023-05-05T07:38:56.589Z,15.38
2023-05-05T07:41:23.460Z,16.48
2023-05-05T07:43:50.333Z,15.35
2023-05-05T07:46:18.155Z,13.18
2023-05-05T07:48:45.556Z,12.15
2023-05-05T07:51:12.392Z,12.63
2023-05-05T07:53:41.301Z,13.60
2023-05-05T07:56:09.020Z,13.65
2023-05-05T07:58:35.935Z,11.05
2023-05-05T08:01:02.904Z,13.60
2023-05-05T08:03:29.877Z,13.32
2023-05-05T08:05:57.020Z,12.35
2023-05-05T08:08:24.955Z,12.15
2023-05-05T08:10:53.229Z,11.13
2023-05-05T08:13:20.744Z,11.32
2023-05-05T08:15:47.871Z,13.82
2023-05-05T08:18:15.059Z,11.35
2023-05-05T08:20:41.973Z,11.60
2023-05-05T08:23:08.917Z,12.18
2023-05-05T08:25:36.101Z,9.25
2023-05-05T08:28:03.294Z,9.95
2023-05-05T08:30:30.295Z,15.38
2023-05-05T08:32:57.472Z,8.70
2023-05-05T08:35:24.596Z,8.52
2023-05-05T08:37:51.854Z,9.55
2023-05-05T08:40:21.325Z,8.25
2023-05-05T08:42:48.427Z,8.27
2023-05-05T08:45:15.980Z,9.75
2023-05-05T08:47:43.687Z,8.60
2023-05-05T08:50:12.111Z,8.70
2023-05-05T08:52:45.762Z,9.90
2023-05-05T08:55:26.491Z,11.43
2023-05-05T08:57:57.053Z,9.07
2023-05-05T09:00:26.996Z,7.57
2023-05-05T09:02:58.210Z,11.02
2023-05-05T09:05:26.566Z,5.80
2023-05-05T09:07:53.700Z,9.18
2023-05-05T09:10:20.998Z,7.53
2023-05-05T09:12:50.436Z,8.23
2023-05-05T09:15:17.265Z,7.00
2023-05-05T09:17:44.295Z,6.97
2023-05-05T09:20:15.373Z,12.13
2023-05-05T09:22:44.064Z,8.60
2023-05-05T09:25:17.399Z,8.68
2023-05-05T09:27:49.342Z,10.32
2023-05-05T09:30:24.428Z,7.85
2023-05-05T09:32:54.426Z,18.63
2023-05-05T09:35:23.290Z,7.95
2023-05-05T09:37:50.442Z,12.23
2023-05-05T09:40:19.529Z,7.93
2023-05-05T09:42:47.352Z,10.02
2023-05-05T09:45:20.232Z,6.57
2023-05-05T09:47:48.702Z,8.13
2023-05-05T09:50:19.005Z,11.32
2023-05-05T09:53:00.715Z,7.38
2023-05-05T09:55:28.545Z,9.02
2023-05-05T09:57:55.707Z,4.88
2023-05-05T10:00:37.279Z,5.55
2023-05-05T10:03:04.563Z,5.63
2023-05-05T10:05:31.580Z,4.57
2023-05-05T10:08:15.672Z,4.00
2023-05-05T10:11:01.018Z,6.10
2023-05-05T10:13:28.951Z,5.18
2023-05-05T10:15:57.940Z,7.55
2023-05-05T10:18:28.636Z,7.10
2023-05-05T10:21:04.033Z,5.45
2023-05-05T10:23:56.071Z,5.70
2023-05-05T10:26:26.748Z,6.50
2023-05-05T10:29:04.045Z,5.85
2023-05-05T10:31:46.152Z,6.45
2023-05-05T10:34:52.589Z,6.70
2023-05-05T10:37:22.764Z,7.80
2023-05-05T10:39:51.263Z,7.35
2023-05-05T10:42:21.105Z,7.13
2023-05-05T10:44:49.162Z,5.63
2023-05-05T10:47:22.512Z,6.25
2023-05-05T10:50:16.378Z,8.30
2023-05-05T10:53:19.208Z,8.25
2023-05-05T10:56:02.590Z,7.80
2023-05-05T10:58:58.269Z,3.63
2023-05-05T11:01:35.433Z,3.97
2023-05-05T11:04:22.031Z,6.93
2023-05-05T11:07:14.422Z,8.07
2023-05-05T11:10:01.599Z,10.90
2023-05-05T11:12:30.877Z,11.70
2023-05-05T11:15:29.053Z,8.25
2023-05-05T11:17:57.933Z,12.98
2023-05-05T11:20:39.507Z,13.55
2023-05-05T11:23:06.561Z,7.32
2023-05-05T11:25:36.722Z,6.30
2023-05-05T11:28:19.016Z,4.57
2023-05-05T11:30:54.737Z,4.20
2023-05-05T11:33:40.933Z,6.88
2023-05-05T11:36:11.627Z,4.35
2023-05-05T11:39:12.844Z,5.72
2023-05-05T11:41:58.772Z,4.90
2023-05-05T11:44:34.480Z,3.85
2023-05-05T11:47:04.042Z,2.78
2023-05-05T11:49:32.734Z,3.75
2023-05-05T11:52:06.284Z,4.63
2023-05-05T11:54:36.430Z,5.82
2023-05-05T11:57:08.344Z,4.70
2023-05-05T11:59:37.482Z,7.72
2023-05-05T12:02:04.977Z,5.65
2023-05-05T12:04:32.202Z,4.50
2023-05-05T12:07:00.188Z,6.07
2023-05-05T12:09:27.458Z,6.32
2023-05-05T12:11:57.344Z,2.58
2023-05-05T12:14:25.658Z,7.90
2023-05-05T12:17:02.917Z,6.55
2023-05-05T12:19:33.126Z,5.00
2023-05-05T12:22:04.678Z,7.25
2023-05-05T12:24:31.763Z,6.18
2023-05-05T12:27:12.157Z,9.20
2023-05-05T12:29:39.213Z,9.88
2023-05-05T12:32:06.540Z,9.18
2023-05-05T12:34:33.970Z,6.70
2023-05-05T12:37:01.583Z,6.00
2023-05-05T12:39:39.180Z,8.05
2023-05-05T12:42:06.490Z,9.80
2023-05-05T12:44:40.877Z,6.00
2023-05-05T12:47:08.068Z,9.18
2023-05-05T12:49:49.867Z,6.00
2023-05-05T12:52:17.344Z,10.90
2023-05-05T12:54:59.150Z,7.50
2023-05-05T12:57:27.181Z,9.13
2023-05-05T12:59:54.619Z,8.82
2023-05-05T13:02:21.540Z,9.75
2023-05-05T13:04:57.476Z,14.00
2023-05-05T13:07:24.305Z,8.10
2023-05-05T13:09:51.301Z,6.47
2023-05-05T13:12:19.120Z,12.00
2023-05-05T13:14:47.142Z,10.77
2023-05-05T13:17:14.801Z,5.70
2023-05-05T13:19:42.761Z,8.25
2023-05-05T13:22:10.228Z,10.70
2023-05-05T13:24:49.827Z,7.50
2023-05-05T13:27:19.249Z,5.50
2023-05-05T13:29:46.232Z,6.85
2023-05-05T13:32:13.105Z,7.28
2023-05-05T13:34:40.033Z,11.15
2023-05-05T13:37:07.143Z,6.75
2023-05-05T13:39:34.151Z,5.43
2023-05-05T13:42:00.985Z,5.20
2023-05-05T13:44:27.884Z,6.70
2023-05-05T13:46:54.824Z,8.00
2023-05-05T13:49:21.766Z,11.55
2023-05-05T13:51:48.657Z,9.63
2023-05-05T13:54:15.741Z,9.50
2023-05-05T13:56:43.755Z,11.95
2023-05-05T13:59:10.740Z,10.40
2023-05-05T14:01:37.973Z,9.75
2023-05-05T14:04:05.832Z,9.35
2023-05-05T14:06:33.912Z,9.10
2023-05-05T14:09:01.397Z,8.23
2023-05-05T14:11:28.278Z,7.40
2023-05-05T14:13:55.175Z,8.88
2023-05-05T14:16:22.077Z,8.40
2023-05-05T14:18:48.962Z,8.55
2023-05-05T14:21:15.815Z,10.60
2023-05-05T14:23:42.724Z,6.30
2023-05-05T14:26:09.642Z,6.90
2023-05-05T14:28:36.492Z,6.05
2023-05-05T14:31:03.460Z,6.15
2023-05-05T14:33:30.395Z,8.18
2023-05-05T14:35:57.372Z,5.68
2023-05-05T14:38:24.328Z,4.40
2023-05-05T14:40:51.249Z,6.53
2023-05-05T14:43:18.050Z,5.22
2023-05-05T14:45:45.025Z,5.55
2023-05-05T14:48:11.969Z,4.78
2023-05-05T14:50:39.994Z,6.07
2023-05-05T14:53:06.869Z,4.70
2023-05-05T14:55:33.741Z,5.70
2023-05-05T14:58:00.860Z,5.22
2023-05-05T15:00:27.912Z,5.38
2023-05-05T15:02:54.840Z,4.78
2023-05-05T15:05:21.907Z,4.68
2023-05-05T15:07:48.750Z,3.63
2023-05-05T15:10:15.784Z,4.55
2023-05-05T15:12:43.065Z,4.38
2023-05-05T15:15:10.847Z,3.30
2023-05-05T15:17:38.826Z,5.05
2023-05-05T15:20:08.697Z,3.38
2023-05-05T15:22:35.602Z,4.88
2023-05-05T15:25:02.592Z,3.70
2023-05-05T15:27:30.662Z,4.95
2023-05-05T15:29:57.763Z,4.55
2023-05-05T15:32:24.750Z,5.57
2023-05-05T15:34:51.620Z,4.40
2023-05-05T15:37:18.426Z,4.32
2023-05-05T15:39:45.368Z,7.32
2023-05-05T15:42:12.247Z,3.35
2023-05-05T15:44:39.276Z,4.60
2023-05-05T15:47:07.315Z,3.33
2023-05-05T15:49:34.253Z,5.53
2023-05-05T15:52:01.232Z,4.07
2023-05-05T15:54:28.138Z,6.43
2023-05-05T15:56:55.342Z,4.10
2023-05-05T15:59:22.716Z,5.15
2023-05-05T16:01:49.611Z,3.10
2023-05-05T16:04:16.462Z,3.05
2023-05-05T16:06:43.621Z,3.47
2023-05-05T16:09:10.646Z,3.58
2023-05-05T16:11:37.554Z,5.50
2023-05-05T16:14:04.765Z,3.20
2023-05-05T16:16:31.635Z,3.63
2023-05-05T16:18:58.563Z,3.45
2023-05-05T16:21:25.835Z,3.92
2023-05-05T16:23:52.758Z,2.70
2023-05-05T16:26:19.945Z,2.17
2023-05-05T16:28:46.845Z,2.80
2023-05-05T16:31:13.735Z,4.72
2023-05-05T16:33:43.528Z,2.83
2023-05-05T16:36:12.789Z,4.22
2023-05-05T16:38:41.906Z,7.85
2023-05-05T16:41:08.819Z,6.10
2023-05-05T16:43:38.382Z,4.97
2023-05-05T16:46:06.382Z,7.82
2023-05-05T16:48:33.286Z,4.40
2023-05-05T16:51:00.203Z,4.35
2023-05-05T16:53:27.090Z,5.40
2023-05-05T16:55:54.006Z,3.83
2023-05-05T16:58:22.842Z,4.72
2023-05-05T17:00:51.464Z,3.38
2023-05-05T17:03:20.459Z,3.03
2023-05-05T17:05:50.156Z,4.43
2023-05-05T17:08:17.228Z,4.93
2023-05-05T17:10:45.439Z,4.47
2023-05-05T17:13:14.255Z,4.57
2023-05-05T17:15:41.850Z,5.15
2023-05-05T17:18:08.903Z,5.57
2023-05-05T17:20:36.465Z,4.05
2023-05-05T17:23:03.779Z,3.97
2023-05-05T17:25:31.355Z,5.30
2023-05-05T17:27:58.316Z,7.80
2023-05-05T17:30:25.641Z,6.28
2023-05-05T17:32:52.866Z,4.78
2023-05-05T17:35:19.897Z,2.85
2023-05-05T17:37:46.867Z,2.70
2023-05-05T17:40:13.777Z,2.72
2023-05-05T17:42:40.646Z,2.63
2023-05-05T17:45:08.794Z,5.78
2023-05-05T17:47:36.238Z,3.85
2023-05-05T17:50:03.729Z,13.20
2023-05-05T17:52:30.673Z,5.00
2023-05-05T17:54:57.622Z,2.75
2023-05-05T17:57:24.431Z,4.35
2023-05-05T17:59:53.296Z,4.88
2023-05-05T18:02:20.424Z,3.03
2023-05-05T18:04:47.725Z,4.03
2023-05-05T18:07:14.993Z,4.60
2023-05-05T18:09:42.959Z,4.80
2023-05-05T18:12:09.889Z,6.45
2023-05-05T18:14:37.031Z,4.82
2023-05-05T18:17:04.718Z,5.57
2023-05-05T18:19:31.700Z,4.93
2023-05-05T18:21:59.104Z,5.93
2023-05-05T18:24:26.158Z,6.45
2023-05-05T18:26:53.267Z,5.40
2023-05-05T18:29:21.907Z,5.18
2023-05-05T18:31:53.049Z,5.10
2023-05-05T18:34:21.009Z,6.47
2023-05-05T18:36:54.147Z,6.03
2023-05-05T18:39:21.289Z,5.35
2023-05-05T18:41:48.216Z,6.07
2023-05-05T18:44:16.159Z,5.30
2023-05-05T18:46:46.969Z,8.60
2023-05-05T18:49:13.920Z,8.45
2023-05-05T18:51:41.421Z,5.80
2023-05-05T18:54:09.508Z,8.02
2023-05-05T18:56:36.865Z,5.60
2023-05-05T18:59:04.769Z,6.07
2023-05-05T19:01:31.731Z,7.57
2023-05-05T19:03:58.705Z,5.55
2023-05-05T19:06:25.593Z,5.55
2023-05-05T19:08:52.673Z,5.63
2023-05-05T19:11:19.534Z,6.60
2023-05-05T19:13:46.665Z,7.35
2023-05-05T19:16:13.528Z,7.35
2023-05-05T19:18:40.486Z,9.80
2023-05-05T19:21:07.365Z,8.38
2023-05-05T19:23:36.045Z,8.13
2023-05-05T19:26:03.787Z,6.55
2023-05-05T19:28:30.711Z,7.47
2023-05-05T19:30:57.536Z,7.07
2023-05-05T19:33:24.400Z,6.80
2023-05-05T19:35:51.445Z,9.10
2023-05-05T19:38:18.346Z,8.27
2023-05-05T19:40:45.169Z,9.93
2023-05-05T19:43:12.004Z,6.78
2023-05-05T19:45:39.077Z,8.55
2023-05-05T19:48:06.741Z,10.65
2023-05-05T19:50:33.576Z,9.20
2023-05-05T19:53:00.605Z,9.30
2023-05-05T19:55:27.476Z,7.72
2023-05-05T19:57:54.334Z,9.82
2023-05-05T20:00:21.677Z,11.55
2023-05-05T20:02:49.270Z,8.65
2023-05-05T20:05:17.607Z,8.10
2023-05-05T20:07:46.326Z,8.32
2023-05-05T20:10:13.719Z,9.60
2023-05-05T20:12:51.383Z,10.25
2023-05-05T20:15:20.909Z,8.95
2023-05-05T20:17:48.655Z,9.60
2023-05-05T20:20:20.042Z,8.60
2023-05-05T20:22:48.435Z,9.25
2023-05-05T20:25:16.440Z,10.70
2023-05-05T20:27:44.113Z,10.55
2023-05-05T20:30:12.320Z,9.23
2023-05-05T20:32:39.539Z,9.93
2023-05-05T20:35:07.360Z,12.13
2023-05-05T20:37:34.339Z,8.48
2023-05-05T20:40:01.300Z,10.30
2023-05-05T20:42:29.609Z,10.52
2023-05-05T20:44:57.060Z,11.05
2023-05-05T20:47:24.791Z,10.63
2023-05-05T20:49:52.565Z,11.10
2023-05-05T20:52:19.960Z,13.00
2023-05-05T20:54:46.810Z,11.90
2023-05-05T20:57:13.701Z,11.98
2023-05-05T20:59:40.514Z,13.63
2023-05-05T21:02:07.845Z,11.80
2023-05-05T21:04:34.800Z,11.73
2023-05-05T21:07:01.642Z,13.30
2023-05-05T21:09:29.018Z,12.32
2023-05-05T21:11:55.846Z,15.52
2023-05-05T21:14:23.427Z,13.23
2023-05-05T21:16:50.314Z,15.45
2023-05-05T21:19:17.158Z,13.35
2023-05-05T21:21:44.319Z,17.67
2023-05-05T21:24:12.997Z,17.92
2023-05-05T21:26:44.296Z,15.38
2023-05-05T21:29:11.740Z,16.88
2023-05-05T21:31:38.593Z,17.92
2023-05-05T21:34:05.486Z,17.52
2023-05-05T21:36:33.757Z,18.00
2023-05-05T21:39:00.922Z,16.60
2023-05-05T21:41:27.861Z,22.75
2023-05-05T21:43:54.757Z,21.88
2023-05-05T21:46:21.726Z,19.13
2023-05-05T21:48:48.604Z,17.45
2023-05-05T21:51:15.590Z,18.92
2023-05-05T21:53:42.422Z,18.95
2023-05-05T21:56:09.421Z,16.40
2023-05-05T21:58:36.264Z,18.60
2023-05-05T22:01:03.158Z,19.30
2023-05-05T22:03:30.082Z,17.95
2023-05-05T22:05:57.266Z,20.50
2023-05-05T22:08:24.144Z,17.55
2023-05-05T22:10:51.497Z,20.33
2023-05-05T22:13:18.386Z,18.52
2023-05-05T22:15:47.423Z,15.82
2023-05-05T22:18:15.554Z,17.40
2023-05-05T22:20:42.649Z,19.05
2023-05-05T22:23:09.551Z,19.77
2023-05-05T22:25:36.511Z,17.08
2023-05-05T22:28:03.670Z,18.90
2023-05-05T22:30:30.769Z,19.27
2023-05-05T22:32:57.575Z,18.88
2023-05-05T22:35:24.569Z,18.73
2023-05-05T22:37:51.672Z,18.60
2023-05-05T22:40:18.584Z,21.75
2023-05-05T22:42:45.491Z,21.98
2023-05-05T22:45:13.714Z,22.30
2023-05-05T22:47:41.025Z,19.63
2023-05-05T22:50:08.970Z,20.35
2023-05-05T22:52:36.314Z,21.48
2023-05-05T22:55:03.890Z,20.90
2023-05-05T22:57:30.921Z,24.08
2023-05-05T22:59:57.743Z,21.52
2023-05-05T23:02:26.609Z,21.88
2023-05-05T23:04:53.721Z,24.30
2023-05-05T23:07:20.893Z,25.25
2023-05-05T23:09:48.137Z,26.77
2023-05-05T23:12:17.553Z,27.63
2023-05-05T23:14:44.432Z,25.15
2023-05-05T23:17:11.672Z,25.17
2023-05-05T23:19:38.615Z,26.10
2023-05-05T23:22:05.564Z,25.95
2023-05-05T23:24:32.930Z,26.30
2023-05-05T23:27:04.005Z,24.55
2023-05-05T23:29:31.032Z,23.38
2023-05-05T23:31:58.463Z,27.67
2023-05-05T23:34:26.616Z,24.77
2023-05-05T23:36:53.412Z,24.50
2023-05-05T23:39:20.334Z,24.88
2023-05-05T23:41:47.169Z,28.83
2023-05-05T23:44:13.998Z,24.13
2023-05-05T23:46:40.864Z,27.55
2023-05-05T23:49:07.769Z,27.75
2023-05-05T23:51:34.576Z,25.77
2023-05-05T23:54:01.682Z,24.73
2023-05-05T23:56:29.693Z,24.48
2023-05-05T23:58:56.431Z,26.13
